Time;durP1;ratioP1;P1;durP2;ratioP2;P2;SDS_P1;SDS_P2;PMS_P1;PMS_P2;Temp;Humidity;BMP_temperature;BMP_pressure;BME280_temperature;BME280_humidity;BME280_pressure;Samples;Min_cycle;Max_cycle;Signal;HPM_P1;HPM_P2
2023/06/16 00:01:38;;;;;;;;;13.00;11.50;;;;;28.68;32.95;101669.16;5075615;27;46082;-69
2023/06/16 00:04:04;;;;;;;;;11.00;10.00;;;;;28.70;32.62;101667.91;5075571;28;45380;-69
2023/06/16 00:06:30;;;;;;;;;13.00;12.00;;;;;28.74;32.33;101668.31;5075232;28;45260;-69
2023/06/16 00:08:57;;;;;;;;;11.50;11.00;;;;;28.77;32.94;101667.09;5075586;28;45456;-69
2023/06/16 00:11:26;;;;;;;;;13.00;12.00;;;;;28.79;33.05;101668.53;5075466;28;46137;-69
2023/06/16 00:13:51;;;;;;;;;12.00;12.00;;;;;28.82;32.89;101665.44;5075336;28;45231;-69
2023/06/16 00:16:20;;;;;;;;;13.25;12.75;;;;;28.84;32.71;101674.09;5075439;28;45350;-69
2023/06/16 00:18:47;;;;;;;;;10.50;10.50;;;;;28.87;32.53;101672.03;5075275;28;45469;-68
2023/06/16 00:21:13;;;;;;;;;13.25;13.25;;;;;28.87;32.79;101672.84;5075313;27;45293;-69
2023/06/16 00:23:40;;;;;;;;;10.75;10.75;;;;;28.91;33.01;101673.28;5075284;27;45355;-69
2023/06/16 00:26:05;;;;;;;;;10.50;10.50;;;;;28.90;32.79;101664.41;5075486;27;45364;-69
2023/06/16 00:28:30;;;;;;;;;10.50;10.50;;;;;28.93;33.10;101672.03;5075534;28;45370;-69
2023/06/16 00:30:56;;;;;;;;;12.00;10.00;;;;;28.94;33.26;101662.94;5074846;28;58727;-69
2023/06/16 00:33:21;;;;;;;;;11.75;11.50;;;;;28.96;32.64;101670.81;5075019;28;45430;-69
2023/06/16 00:35:47;;;;;;;;;11.25;11.25;;;;;28.97;32.90;101669.75;5075424;28;45225;-69
2023/06/16 00:38:12;;;;;;;;;11.75;10.50;;;;;28.96;33.27;101663.56;5075257;27;45374;-69
2023/06/16 00:40:38;;;;;;;;;11.50;11.00;;;;;28.99;33.36;101664.19;5078559;27;46045;-69
2023/06/16 00:43:03;;;;;;;;;11.00;11.00;;;;;29.00;33.02;101668.50;5078672;28;45825;-69
2023/06/16 00:45:29;;;;;;;;;11.33;9.67;;;;;29.00;33.00;101666.66;5078809;27;45420;-69
2023/06/16 00:47:56;;;;;;;;;13.75;11.00;;;;;29.04;32.58;101664.41;5078261;28;45731;-69
2023/06/16 00:50:23;;;;;;;;;10.00;9.75;;;;;29.05;33.28;101668.72;5078344;28;47273;-69
2023/06/16 00:52:49;;;;;;;;;10.75;10.75;;;;;29.06;33.27;101665.00;5078515;28;45398;-69
2023/06/16 00:55:16;;;;;;;;;10.50;10.50;;;;;29.06;33.01;101663.16;5078530;28;45313;-69
2023/06/16 00:57:42;;;;;;;;;10.75;10.75;;;;;29.07;32.91;101661.28;5078457;28;45220;-69
2023/06/16 01:00:11;;;;;;;;;13.00;12.25;;;;;29.06;33.74;101660.47;5078399;27;46153;-69
2023/06/16 01:02:36;;;;;;;;;11.00;11.00;;;;;29.09;33.17;101658.41;5078039;28;45375;-69
2023/06/16 01:05:02;;;;;;;;;12.75;11.75;;;;;29.09;33.26;101656.59;5078547;28;45382;-69
2023/06/16 01:07:41;;;;;;;;;10.75;10.25;;;;;29.11;33.58;101664.41;5078652;27;45355;-69
2023/06/16 01:10:15;;;;;;;;;10.50;10.50;;;;;29.12;33.39;101663.38;5076928;28;48728;-70
2023/06/16 01:12:56;;;;;;;;;10.00;10.00;;;;;29.13;33.31;101662.34;5078270;28;45401;-69
2023/06/16 01:15:25;;;;;;;;;13.25;12.25;;;;;29.14;33.38;101664.00;5078161;28;45417;-69
2023/06/16 01:17:54;;;;;;;;;10.75;10.75;;;;;29.13;33.34;101656.97;5077818;28;45323;-69
2023/06/16 01:20:38;;;;;;;;;13.00;11.00;;;;;29.15;33.24;101657.59;5077880;28;46402;-69
2023/06/16 01:23:09;;;;;;;;;10.00;10.00;;;;;29.16;33.39;101661.91;5078041;28;45425;-69
2023/06/16 01:25:38;;;;;;;;;11.67;11.00;;;;;29.15;33.23;101653.06;5078128;28;45234;-69
2023/06/16 01:28:05;;;;;;;;;10.25;10.25;;;;;29.16;33.50;101651.22;5077882;28;45318;-69
2023/06/16 01:30:32;;;;;;;;;8.67;8.67;;;;;29.15;33.39;101650.38;5077791;27;46256;-69
2023/06/16 01:32:58;;;;;;;;;10.67;10.67;;;;;29.16;33.69;101653.88;5077625;27;45459;-69
2023/06/16 01:35:25;;;;;;;;;13.50;12.50;;;;;29.17;33.50;101658.22;5077850;28;45424;-69
2023/06/16 01:37:52;;;;;;;;;11.00;11.00;;;;;29.16;33.43;101654.72;5077887;27;45501;-69
2023/06/16 01:40:19;;;;;;;;;11.50;10.50;;;;;29.16;33.58;101657.41;5077544;27;46050;-69
2023/06/16 01:42:47;;;;;;;;;12.50;11.25;;;;;29.17;33.52;101650.19;5077841;27;45417;-69
2023/06/16 01:45:15;;;;;;;;;12.50;11.75;;;;;29.16;33.67;101649.34;5077831;27;45410;-69
2023/06/16 01:47:43;;;;;;;;;13.00;11.25;;;;;29.17;33.70;101642.94;5077308;27;45478;-69
2023/06/16 01:50:09;;;;;;;;;10.33;10.33;;;;;29.18;33.52;101654.50;5076837;28;46085;-69
2023/06/16 01:52:35;;;;;;;;;11.75;11.75;;;;;29.17;33.67;101645.63;5077549;28;45371;-69
2023/06/16 01:55:00;;;;;;;;;8.75;8.75;;;;;29.18;33.30;101652.66;5077847;28;45327;-69
2023/06/16 01:57:26;;;;;;;;;12.00;11.25;;;;;29.18;33.51;101644.59;5077667;27;45554;-69
2023/06/16 02:00:00;;;;;;;;;10.00;10.00;;;;;29.20;34.03;101654.31;5077514;28;45456;-68
2023/06/16 02:02:29;;;;;;;;;13.50;12.00;;;;;29.20;33.82;101657.78;5077180;27;45366;-69
2023/06/16 02:04:55;;;;;;;;;10.50;10.50;;;;;29.20;33.85;101655.09;5077655;28;45350;-69
2023/06/16 02:07:30;;;;;;;;;10.75;10.75;;;;;29.20;33.28;101651.63;5077233;28;45244;-69
2023/06/16 02:09:58;;;;;;;;;10.00;10.00;;;;;29.19;33.96;101656.16;5077196;28;47199;-69
2023/06/16 02:12:23;;;;;;;;;10.50;10.50;;;;;29.21;33.79;101646.03;5077283;28;45328;-69
2023/06/16 02:14:50;;;;;;;;;11.00;10.75;;;;;29.22;33.66;101652.22;5092797;27;45359;-69
2023/06/16 02:17:16;;;;;;;;;10.67;10.33;;;;;29.20;33.54;101649.75;5077250;28;45319;-69
2023/06/16 02:19:41;;;;;;;;;11.75;11.75;;;;;29.22;33.79;101652.22;5077002;28;47060;-69
2023/06/16 02:22:06;;;;;;;;;11.25;11.25;;;;;29.23;33.97;101664.56;5077195;28;45371;-69
2023/06/16 02:24:32;;;;;;;;;15.25;10.25;;;;;29.23;33.58;101653.84;5077235;28;45864;-69
2023/06/16 02:26:57;;;;;;;;;9.75;9.75;;;;;29.23;33.46;101659.22;5093048;27;45494;-69
2023/06/16 02:29:23;;;;;;;;;11.00;11.00;;;;;29.22;33.70;101650.38;5076539;28;45382;-69
2023/06/16 02:31:50;;;;;;;;;9.50;9.25;;;;;29.23;33.76;101651.19;5077081;27;45214;-69
2023/06/16 02:34:16;;;;;;;;;10.33;9.33;;;;;29.23;33.82;101651.19;5077216;28;45306;-69
2023/06/16 02:36:42;;;;;;;;;10.67;9.33;;;;;29.23;34.05;101649.31;5076974;28;45257;-69
2023/06/16 02:39:07;;;;;;;;;10.25;9.25;;;;;29.23;33.64;101649.31;5076641;27;46209;-69
2023/06/16 02:41:33;;;;;;;;;11.50;11.25;;;;;29.23;33.90;101652.00;5076851;27;45332;-69
2023/06/16 02:43:59;;;;;;;;;10.00;9.00;;;;;29.23;33.83;101648.50;5076643;27;45395;-69
2023/06/16 02:46:24;;;;;;;;;11.00;11.00;;;;;29.22;33.98;101650.38;5076753;28;45505;-69
2023/06/16 02:48:50;;;;;;;;;10.25;10.25;;;;;29.23;33.85;101654.69;5076680;28;46075;-69
2023/06/16 02:51:15;;;;;;;;;10.25;10.25;;;;;29.22;33.74;101644.19;5076585;28;45367;-68
2023/06/16 02:53:41;;;;;;;;;10.00;10.00;;;;;29.21;33.91;101647.88;5076870;28;45458;-69
2023/06/16 02:56:07;;;;;;;;;10.00;10.00;;;;;29.22;34.04;101641.50;5076744;28;45371;-70
2023/06/16 02:58:32;;;;;;;;;11.25;11.25;;;;;29.22;34.05;101641.50;5076056;28;45311;-69
2023/06/16 03:00:58;;;;;;;;;10.00;10.00;;;;;29.22;34.15;101642.34;5076528;28;45417;-69
2023/06/16 03:03:25;;;;;;;;;13.25;12.25;;;;;29.22;33.97;101644.19;5076748;27;45425;-69
2023/06/16 03:05:50;;;;;;;;;10.25;10.25;;;;;29.21;34.18;101640.69;5076585;28;45395;-69
2023/06/16 03:08:16;;;;;;;;;12.00;11.00;;;;;29.22;34.32;101647.69;5076061;28;47050;-69
2023/06/16 03:10:41;;;;;;;;;10.67;10.67;;;;;29.21;33.99;101638.00;5076510;28;45290;-69
2023/06/16 03:13:07;;;;;;;;;12.00;12.00;;;;;29.19;34.06;101640.06;5076284;28;45367;-69
2023/06/16 03:15:32;;;;;;;;;8.25;8.25;;;;;29.21;34.16;101645.22;5076324;28;45569;-69
2023/06/16 03:17:58;;;;;;;;;11.25;11.25;;;;;29.21;34.14;101642.53;5076248;28;45342;-69
2023/06/16 03:20:23;;;;;;;;;11.25;9.75;;;;;29.20;33.86;101636.34;5076623;27;45391;-69
2023/06/16 03:22:48;;;;;;;;;9.75;9.75;;;;;29.22;34.09;101642.34;5076474;28;45425;-69
2023/06/16 03:25:15;;;;;;;;;9.00;9.00;;;;;29.22;33.74;101631.63;5076320;28;45493;-68
2023/06/16 03:27:41;;;;;;;;;11.00;11.00;;;;;29.21;34.47;101629.13;5075642;28;46563;-69
2023/06/16 03:30:08;;;;;;;;;9.50;9.50;;;;;29.22;34.12;101636.97;5076153;28;45390;-69
2023/06/16 03:32:34;;;;;;;;;11.25;11.25;;;;;29.22;34.01;101639.66;5076000;28;45402;-69
2023/06/16 03:35:02;;;;;;;;;10.00;10.00;;;;;29.23;33.99;101645.81;5076168;27;45206;-69
2023/06/16 03:37:27;;;;;;;;;11.00;10.50;;;;;29.22;34.24;101641.50;5075963;27;46971;-69
2023/06/16 03:39:53;;;;;;;;;11.00;10.00;;;;;29.23;34.09;101632.41;5075694;27;45396;-69
2023/06/16 03:42:18;;;;;;;;;10.50;10.50;;;;;29.23;34.50;101633.25;5075877;28;45348;-69
2023/06/16 03:44:43;;;;;;;;;9.25;9.25;;;;;29.24;33.95;101634.91;5076081;28;45359;-68
2023/06/16 03:47:09;;;;;;;;;9.00;9.00;;;;;29.25;33.77;101633.06;5075718;27;46061;-69
2023/06/16 03:49:34;;;;;;;;;10.75;10.75;;;;;29.24;34.50;101632.22;5075990;28;45420;-69
2023/06/16 03:51:59;;;;;;;;;12.25;12.25;;;;;29.22;34.30;101626.25;5075935;28;45312;-69
2023/06/16 03:54:26;;;;;;;;;11.50;11.00;;;;;29.24;33.83;101626.03;5075898;28;45458;-69
2023/06/16 03:56:51;;;;;;;;;9.67;9.00;;;;;29.25;34.37;101627.69;5075300;28;47065;-69
2023/06/16 03:59:17;;;;;;;;;9.00;9.00;;;;;29.23;33.90;101625.22;5075618;28;45445;-69
2023/06/16 04:01:42;;;;;;;;;11.00;10.75;;;;;29.25;34.44;101628.50;5075933;28;45841;-70
2023/06/16 04:04:08;;;;;;;;;13.50;12.25;;;;;29.23;34.53;101625.22;5075793;28;45383;-69
2023/06/16 04:06:36;;;;;;;;;10.67;10.00;;;;;29.24;34.60;101631.41;5075781;27;46213;-69
2023/06/16 04:09:02;;;;;;;;;10.33;10.00;;;;;29.23;34.21;101627.88;5075525;27;45296;-69
2023/06/16 04:11:28;;;;;;;;;10.00;10.00;;;;;29.24;34.25;101621.50;5075363;27;45406;-69
2023/06/16 04:13:53;;;;;;;;;11.00;9.33;;;;;29.25;34.29;101630.38;5076659;28;45357;-69
2023/06/16 04:16:19;;;;;;;;;12.50;11.75;;;;;29.25;34.27;101633.06;5078923;27;47203;-69
2023/06/16 04:18:48;;;;;;;;;10.75;10.25;;;;;29.24;34.23;101623.38;5078959;28;45452;-69
2023/06/16 04:21:16;;;;;;;;;11.75;11.75;;;;;29.24;34.03;101637.59;5079109;27;45358;-69
2023/06/16 04:23:41;;;;;;;;;9.50;8.25;;;;;29.24;34.19;101634.91;5079147;28;45372;-69
2023/06/16 04:26:08;;;;;;;;;10.00;10.00;;;;;29.25;34.23;101638.41;5078384;28;49833;-69
2023/06/16 04:28:38;;;;;;;;;11.00;10.00;;;;;29.23;34.26;101630.56;5078878;28;45409;-69
2023/06/16 04:31:05;;;;;;;;;10.00;10.00;;;;;29.24;34.48;101644.78;5079079;28;45424;-69
2023/06/16 04:33:30;;;;;;;;;9.67;9.67;;;;;29.23;34.21;101635.94;5078919;28;45481;-69
2023/06/16 04:35:55;;;;;;;;;15.00;12.75;;;;;29.23;34.46;101641.28;5078859;27;45262;-70
2023/06/16 04:38:22;;;;;;;;;8.50;8.50;;;;;29.24;34.45;101642.13;5077554;27;45405;-69
2023/06/16 04:40:48;;;;;;;;;9.67;9.67;;;;;29.23;34.38;101633.25;5078586;28;45311;-69
2023/06/16 04:43:14;;;;;;;;;11.33;9.67;;;;;29.22;34.25;101628.94;5078742;28;45331;-69
2023/06/16 04:45:39;;;;;;;;;10.00;10.00;;;;;29.21;34.24;101632.66;5078665;27;45941;-69
2023/06/16 04:48:04;;;;;;;;;12.50;10.75;;;;;29.22;34.49;101636.16;5078059;27;45443;-69
2023/06/16 04:50:30;;;;;;;;;11.50;11.50;;;;;29.24;34.74;101637.59;5078734;28;45391;-70
2023/06/16 04:52:56;;;;;;;;;8.00;8.00;;;;;29.21;34.42;101640.69;5078985;28;45442;-69
2023/06/16 04:55:21;;;;;;;;;11.75;9.50;;;;;29.21;34.61;101637.19;5078181;28;46855;-69
2023/06/16 04:57:47;;;;;;;;;9.67;9.67;;;;;29.20;34.94;101633.66;5078420;28;45358;-69
2023/06/16 05:00:13;;;;;;;;;9.75;8.25;;;;;29.22;34.54;101639.66;5078738;28;45278;-69
2023/06/16 05:02:40;;;;;;;;;9.00;9.00;;;;;29.21;34.57;101634.50;5078532;27;45263;-69
2023/06/16 05:05:06;;;;;;;;;11.33;9.67;;;;;29.21;34.66;101640.69;5078354;28;46353;-69
2023/06/16 05:07:31;;;;;;;;;10.33;10.33;;;;;29.22;34.45;101641.50;5078208;28;45537;-69
2023/06/16 05:09:57;;;;;;;;;10.00;8.00;;;;;29.21;34.43;101639.84;5078179;27;45165;-69
2023/06/16 05:12:24;;;;;;;;;10.00;9.33;;;;;29.22;34.96;101636.16;5078475;28;45339;-69
2023/06/16 05:14:50;;;;;;;;;10.00;10.00;;;;;29.22;34.43;101633.47;5078293;27;46268;-70
2023/06/16 05:17:15;;;;;;;;;10.75;10.75;;;;;29.23;34.54;101638.59;5078029;28;45413;-69
2023/06/16 05:19:40;;;;;;;;;11.00;9.00;;;;;29.23;34.53;101641.28;5078458;27;45777;-69
2023/06/16 05:22:06;;;;;;;;;11.50;11.50;;;;;29.25;34.62;101641.91;5078232;28;45382;-69
2023/06/16 05:24:31;;;;;;;;;12.00;10.75;;;;;29.22;34.42;101636.97;5077805;27;46449;-69
2023/06/16 05:26:58;;;;;;;;;11.00;10.75;;;;;29.24;34.96;101642.94;5076949;28;45368;-69
2023/06/16 05:29:23;;;;;;;;;9.67;9.67;;;;;29.24;34.88;101640.25;5078204;28;45382;-69
2023/06/16 05:31:48;;;;;;;;;10.67;10.67;;;;;29.25;34.90;101641.91;5077933;28;45361;-69
2023/06/16 05:34:13;;;;;;;;;9.67;9.67;;;;;29.26;34.63;101648.09;5077883;28;45347;-69
2023/06/16 05:36:39;;;;;;;;;12.00;11.67;;;;;29.24;34.46;101642.94;5077973;28;45389;-69
2023/06/16 05:39:06;;;;;;;;;10.00;9.33;;;;;29.25;34.59;101641.91;5077396;27;45576;-69
2023/06/16 05:41:32;;;;;;;;;10.00;10.00;;;;;29.26;35.03;101646.22;5078035;27;45246;-69
2023/06/16 05:43:57;;;;;;;;;9.67;9.67;;;;;29.24;34.38;101650.97;5077686;28;45558;-69
2023/06/16 05:46:23;;;;;;;;;10.33;10.00;;;;;29.25;34.56;101644.56;5077864;28;45372;-69
2023/06/16 05:48:48;;;;;;;;;10.50;10.50;;;;;29.23;34.44;101643.97;5077730;28;45319;-69
2023/06/16 05:51:15;;;;;;;;;9.67;9.67;;;;;29.25;34.22;101644.56;5077657;28;45425;-69
2023/06/16 05:53:40;;;;;;;;;8.00;8.00;;;;;29.25;34.32;101641.91;5077407;28;45592;-69
2023/06/16 05:56:05;;;;;;;;;12.00;12.00;;;;;29.25;34.57;101643.78;5077514;28;45252;-69
2023/06/16 05:58:35;;;;;;;;;8.33;8.33;;;;;29.26;34.68;101651.59;5077599;28;45379;-69
2023/06/16 06:01:09;;;;;;;;;11.00;10.33;;;;;29.26;34.59;101640.88;5077711;27;45262;-69
2023/06/16 06:03:34;;;;;;;;;10.00;10.00;;;;;29.27;34.51;101647.06;5077301;28;46176;-69
2023/06/16 06:06:01;;;;;;;;;11.50;10.75;;;;;29.24;34.57;101648.31;5077240;28;45454;-69
2023/06/16 06:08:28;;;;;;;;;10.25;10.25;;;;;29.27;34.65;101650.56;5077106;28;45343;-69
2023/06/16 06:10:54;;;;;;;;;10.67;10.67;;;;;29.26;34.50;101656.94;5093168;27;45399;-69
2023/06/16 06:13:19;;;;;;;;;10.00;10.00;;;;;29.27;34.84;101663.97;5077025;28;47123;-69
2023/06/16 06:15:44;;;;;;;;;4.33;4.33;;;;;29.26;34.58;101661.47;5077116;28;45387;-69
2023/06/16 06:18:10;;;;;;;;;9.00;9.00;;;;;29.27;34.84;101658.59;5077273;28;45423;-69
2023/06/16 06:20:38;;;;;;;;;10.00;10.00;;;;;29.24;34.76;101659.03;5077324;28;45279;-69
2023/06/16 06:23:04;;;;;;;;;11.25;11.25;;;;;29.27;34.84;101668.50;5076714;28;46081;-69
2023/06/16 06:25:30;;;;;;;;;9.33;9.00;;;;;29.27;34.84;101673.84;5077110;28;45276;-70
2023/06/16 06:27:55;;;;;;;;;12.75;11.00;;;;;29.26;35.48;101673.03;5077261;27;45309;-70
2023/06/16 06:30:20;;;;;;;;;9.75;9.75;;;;;29.27;35.24;101672.00;5077164;27;45235;-69
2023/06/16 06:32:46;;;;;;;;;12.00;11.67;;;;;29.28;34.92;101676.31;5092497;27;47757;-69
2023/06/16 06:35:11;;;;;;;;;10.33;10.33;;;;;29.29;34.57;101682.50;5077092;28;45437;-69
2023/06/16 06:37:36;;;;;;;;;11.00;11.00;;;;;29.29;34.70;101677.16;5076412;28;45283;-69
2023/06/16 06:40:02;;;;;;;;;9.67;9.67;;;;;29.29;34.90;101671.78;5076990;27;45360;-69
2023/06/16 06:42:27;;;;;;;;;11.00;11.00;;;;;29.22;34.77;101669.13;5076840;27;46155;-71
2023/06/16 06:44:53;;;;;;;;;12.00;12.00;;;;;29.31;35.28;101676.94;5076869;27;45334;-69
2023/06/16 06:47:21;;;;;;;;;17.00;15.25;;;;;29.29;33.88;101679.81;5076865;27;45358;-69
2023/06/16 06:49:46;;;;;;;;;14.25;13.25;;;;;29.26;33.46;101678.38;5076591;27;45390;-70
2023/06/16 06:52:11;;;;;;;;;15.75;14.50;;;;;29.16;33.01;101673.47;5091970;27;47305;-69
2023/06/16 06:54:37;;;;;;;;;17.75;16.50;;;;;29.06;32.87;101678.41;5076576;28;46931;-69
2023/06/16 06:57:02;;;;;;;;;13.50;13.00;;;;;28.85;33.10;101664.22;5076421;28;47575;-71
2023/06/16 06:59:27;;;;;;;;;16.75;16.75;;;;;28.83;33.37;101685.03;5076715;28;45418;-70
2023/06/16 07:01:53;;;;;;;;;20.75;16.25;;;;;28.78;32.70;101676.78;5076579;28;45970;-69
2023/06/16 07:04:18;;;;;;;;;16.75;15.00;;;;;28.67;33.11;101687.09;5076500;28;45331;-69
2023/06/16 07:06:44;;;;;;;;;14.50;14.00;;;;;28.61;33.07;101683.38;5076240;28;45604;-69
2023/06/16 07:09:09;;;;;;;;;18.75;16.25;;;;;28.58;33.51;101688.28;5076365;28;45553;-69
2023/06/16 07:11:35;;;;;;;;;16.25;15.75;;;;;28.56;33.91;101685.84;5076247;28;45952;-69
2023/06/16 07:14:01;;;;;;;;;14.25;14.25;;;;;28.53;33.70;101680.88;5076435;27;45371;-68
2023/06/16 07:16:27;;;;;;;;;16.50;14.00;;;;;28.52;33.53;101685.41;5076246;28;45335;-69
2023/06/16 07:18:53;;;;;;;;;16.75;16.75;;;;;28.52;33.77;101687.28;5076386;28;45364;-69
2023/06/16 07:21:18;;;;;;;;;13.50;12.50;;;;;28.55;33.77;101686.84;5075541;27;45367;-69
2023/06/16 07:23:43;;;;;;;;;15.25;15.25;;;;;28.59;33.71;101687.28;5076226;28;45542;-69
2023/06/16 07:26:09;;;;;;;;;16.25;14.25;;;;;28.59;33.01;101689.97;5076429;27;45287;-69
2023/06/16 07:28:34;;;;;;;;;17.50;16.75;;;;;28.60;33.27;101688.91;5076081;27;45372;-68
2023/06/16 07:31:00;;;;;;;;;16.75;14.00;;;;;28.59;33.37;101692.63;5076091;27;46241;-68
2023/06/16 07:33:25;;;;;;;;;17.50;15.50;;;;;28.58;33.10;101688.28;5076084;28;45394;-69
2023/06/16 07:35:51;;;;;;;;;13.25;10.25;;;;;28.59;33.61;101692.63;5075811;28;45413;-70
2023/06/16 07:38:16;;;;;;;;;15.00;14.00;;;;;28.58;33.26;101688.28;5076021;28;45341;-69
2023/06/16 07:40:41;;;;;;;;;13.75;12.50;;;;;28.60;33.22;101691.59;5075769;27;45334;-69
2023/06/16 07:43:07;;;;;;;;;11.25;11.25;;;;;28.58;32.99;101685.63;5075934;27;45417;-71
2023/06/16 07:45:33;;;;;;;;;11.00;11.00;;;;;28.57;32.81;101690.16;5076200;28;45329;-68
2023/06/16 07:48:02;;;;;;;;;12.25;12.25;;;;;28.58;33.38;101682.94;5075549;27;45270;-69
2023/06/16 07:50:27;;;;;;;;;16.50;16.50;;;;;28.57;33.14;101678.63;5075145;27;45334;-70
2023/06/16 07:52:53;;;;;;;;;14.50;13.00;;;;;28.65;32.98;101688.31;5075961;27;45362;-70
2023/06/16 07:55:18;;;;;;;;;12.00;11.00;;;;;28.67;33.15;101686.25;5075924;28;45307;-71
2023/06/16 07:57:43;;;;;;;;;14.75;11.50;;;;;28.67;33.65;101687.09;5074910;27;45319;-71
2023/06/16 08:00:14;;;;;;;;;13.00;13.00;;;;;28.71;33.90;101682.94;5075478;27;45544;-70
2023/06/16 08:02:41;;;;;;;;;12.75;12.00;;;;;28.77;33.73;101689.34;5075141;27;45474;-70
2023/06/16 08:05:08;;;;;;;;;13.00;13.00;;;;;28.83;34.20;101685.81;5075676;27;45352;-70
2023/06/16 08:07:34;;;;;;;;;13.75;13.00;;;;;28.87;33.65;101677.38;5075520;28;45514;-70
2023/06/16 08:10:00;;;;;;;;;11.25;11.25;;;;;28.89;34.12;101669.97;5075385;27;45964;-70
2023/06/16 08:12:25;;;;;;;;;11.50;11.50;;;;;28.93;33.66;101673.88;5075596;28;45358;-70
2023/06/16 08:14:50;;;;;;;;;11.75;11.25;;;;;28.96;33.93;101668.13;5075616;27;45300;-70
2023/06/16 08:17:16;;;;;;;;;11.75;11.25;;;;;28.99;33.94;101665.00;5075292;28;45416;-70
2023/06/16 08:19:41;;;;;;;;;16.50;12.75;;;;;29.02;33.91;101666.44;5075622;28;46289;-70
2023/06/16 08:22:06;;;;;;;;;12.75;12.25;;;;;29.04;34.16;101667.06;5075459;28;45359;-70
2023/06/16 08:24:32;;;;;;;;;13.00;11.75;;;;;29.07;34.12;101666.63;5075855;28;45511;-70
2023/06/16 08:26:58;;;;;;;;;11.75;10.25;;;;;29.06;34.10;101673.88;5075274;28;48153;-70
2023/06/16 08:29:23;;;;;;;;;12.00;12.00;;;;;29.07;34.40;101659.44;5074538;28;45394;-70
2023/06/16 08:31:49;;;;;;;;;11.00;11.00;;;;;29.11;34.29;101654.53;5074820;28;46972;-70
2023/06/16 08:34:14;;;;;;;;;11.75;11.00;;;;;29.15;33.67;101657.59;5075514;28;45430;-70
2023/06/16 08:36:40;;;;;;;;;11.50;10.00;;;;;29.17;34.12;101648.31;5075435;28;45341;-71
2023/06/16 08:39:09;;;;;;;;;10.50;10.25;;;;;29.17;33.80;101661.69;5068538;28;45956;-70
2023/06/16 08:41:36;;;;;;;;;11.75;11.25;;;;;29.20;34.37;101654.31;5055045;28;45458;-70
2023/06/16 08:44:03;;;;;;;;;11.50;11.50;;;;;29.20;33.70;101647.06;5037036;28;45374;-70
2023/06/16 08:46:29;;;;;;;;;11.25;11.25;;;;;29.19;33.91;101645.44;5054497;28;45262;-70
2023/06/16 08:48:54;;;;;;;;;15.00;13.25;;;;;29.22;34.29;101645.03;5054701;28;45479;-70
2023/06/16 08:51:24;;;;;;;;;12.00;11.50;;;;;29.25;34.16;101643.78;5054575;28;45460;-70
2023/06/16 08:53:54;;;;;;;;;11.25;11.25;;;;;29.25;34.00;101651.81;5055025;28;45421;-70
2023/06/16 08:56:19;;;;;;;;;12.25;12.00;;;;;29.24;34.32;101637.59;5054840;28;45350;-70
2023/06/16 08:58:47;;;;;;;;;12.00;12.00;;;;;29.27;33.83;101647.06;5054518;28;47058;-70
2023/06/16 09:01:14;;;;;;;;;12.00;10.50;;;;;29.28;34.13;101649.53;5057286;28;45377;-71
2023/06/16 09:03:41;;;;;;;;;12.00;10.25;;;;;29.28;33.92;101646.00;5058197;28;45439;-70
2023/06/16 09:06:09;;;;;;;;;11.00;11.00;;;;;29.29;34.25;101645.81;5058290;28;45439;-70
2023/06/16 09:08:35;;;;;;;;;10.00;10.00;;;;;29.31;33.72;101647.44;5057625;28;46363;-70
2023/06/16 09:11:07;;;;;;;;;11.00;11.00;;;;;29.32;34.26;101649.94;5057931;28;45307;-70
2023/06/16 09:13:32;;;;;;;;;12.25;11.00;;;;;29.32;34.13;101647.25;5058194;28;45498;-70
2023/06/16 09:15:59;;;;;;;;;12.50;11.00;;;;;29.33;34.25;101648.88;5067695;28;45261;-70
2023/06/16 09:18:40;;;;;;;;;11.75;11.25;;;;;29.34;34.59;101647.84;5078034;28;46110;-70
2023/06/16 09:21:08;;;;;;;;;10.75;10.75;;;;;29.34;34.20;101647.84;5078047;27;45364;-70
2023/06/16 09:23:35;;;;;;;;;11.00;11.00;;;;;29.34;34.26;101642.50;5078134;28;45229;-71
2023/06/16 09:26:08;;;;;;;;;10.50;10.50;;;;;29.36;34.37;101642.28;5078066;27;45529;-70
2023/06/16 09:28:35;;;;;;;;;10.00;10.00;;;;;29.37;34.36;101646.63;5077804;28;47348;-70
2023/06/16 09:31:03;;;;;;;;;12.00;11.00;;;;;29.36;34.36;101634.22;5076389;28;45396;-70
2023/06/16 09:33:30;;;;;;;;;11.00;10.67;;;;;29.39;34.05;101631.97;5078000;28;45382;-71
2023/06/16 09:35:55;;;;;;;;;11.25;11.25;;;;;29.40;34.48;101636.31;5077914;28;45280;-71
2023/06/16 09:38:21;;;;;;;;;12.25;12.00;;;;;29.42;34.22;101643.28;5077567;27;45279;-70
2023/06/16 09:40:46;;;;;;;;;12.25;12.00;;;;;29.41;34.20;101639.78;5077827;28;45245;-70
2023/06/16 09:43:11;;;;;;;;;14.33;11.00;;;;;29.42;34.50;101636.09;5077849;28;45343;-70
2023/06/16 09:45:37;;;;;;;;;11.00;11.00;;;;;29.41;34.10;101634.44;5077035;27;45624;-71
2023/06/16 09:48:04;;;;;;;;;11.00;10.00;;;;;29.41;34.30;101637.09;5077781;27;45660;-71
2023/06/16 09:50:31;;;;;;;;;10.25;10.25;;;;;29.42;34.13;101641.44;5077602;28;45221;-70
2023/06/16 09:52:57;;;;;;;;;11.00;11.00;;;;;29.44;34.33;101638.53;5076491;28;45476;-70
2023/06/16 09:55:27;;;;;;;;;12.25;11.75;;;;;29.42;34.09;101636.09;5077564;27;45818;-71
2023/06/16 09:57:53;;;;;;;;;12.75;12.75;;;;;29.43;34.38;101635.06;5077302;28;46304;-71
2023/06/16 10:00:19;;;;;;;;;10.67;10.33;;;;;29.45;34.20;101637.50;5077060;28;45375;-70
2023/06/16 10:02:45;;;;;;;;;13.00;10.00;;;;;29.45;33.62;101632.16;5077531;27;45494;-71
2023/06/16 10:05:16;;;;;;;;;11.00;11.00;;;;;29.45;34.08;101627.63;5077525;28;45581;-70
2023/06/16 10:07:49;;;;;;;;;11.25;9.00;;;;;29.45;34.14;101645.56;5077194;27;46091;-70
2023/06/16 10:10:16;;;;;;;;;11.00;11.00;;;;;29.45;33.64;101630.31;5077204;28;45415;-70
2023/06/16 10:12:48;;;;;;;;;12.00;10.00;;;;;29.47;34.04;101633.59;5076837;28;45529;-70
2023/06/16 10:15:18;;;;;;;;;9.00;9.00;;;;;29.47;34.15;101625.53;5076739;27;45404;-71
2023/06/16 10:17:46;;;;;;;;;11.50;11.50;;;;;29.46;34.15;101621.22;5077015;28;47164;-70
2023/06/16 10:20:15;;;;;;;;;11.00;11.00;;;;;29.47;34.07;101630.91;5077126;28;45193;-70
2023/06/16 10:22:41;;;;;;;;;12.67;11.00;;;;;29.48;34.07;101632.56;5077014;28;45413;-70
2023/06/16 10:25:07;;;;;;;;;9.00;9.00;;;;;29.48;33.84;101624.53;5077219;28;45401;-71
2023/06/16 10:27:35;;;;;;;;;10.00;10.00;;;;;29.47;34.19;101622.88;5076890;27;46526;-70
2023/06/16 10:30:02;;;;;;;;;9.67;9.67;;;;;29.49;34.21;101625.31;5076740;28;45447;-70
2023/06/16 10:32:27;;;;;;;;;11.67;10.00;;;;;29.48;34.05;101616.47;5077227;27;45283;-70
2023/06/16 10:34:56;;;;;;;;;11.00;10.50;;;;;29.48;33.96;101621.00;5076764;27;45401;-70
2023/06/16 10:37:23;;;;;;;;;11.00;11.00;;;;;29.47;33.80;101612.16;5076880;28;45908;-70
2023/06/16 10:39:49;;;;;;;;;11.67;11.33;;;;;29.46;34.36;101607.81;5076669;27;45475;-70
2023/06/16 10:42:15;;;;;;;;;13.67;13.00;;;;;29.49;34.17;101609.22;5076625;28;45220;-71
2023/06/16 10:44:42;;;;;;;;;13.00;11.75;;;;;29.47;34.24;101606.78;5076923;27;45325;-70
2023/06/16 10:47:11;;;;;;;;;11.67;10.33;;;;;29.50;34.11;101610.91;5076485;28;46062;-70
2023/06/16 10:49:55;;;;;;;;;11.33;10.00;;;;;29.49;33.94;101604.69;5076648;28;45389;-70
2023/06/16 10:52:42;;;;;;;;;12.00;10.75;;;;;29.51;34.33;101604.47;5056594;28;45390;-70
2023/06/16 10:55:33;;;;;;;;;8.00;8.00;;;;;29.50;34.05;101595.63;5056523;28;45363;-70
2023/06/16 10:58:17;;;;;;;;;9.67;8.67;;;;;29.50;34.20;101595.63;5055781;28;45510;-70
2023/06/16 11:00:44;;;;;;;;;12.00;11.00;;;;;29.49;33.91;101593.97;5056114;28;45395;-70
2023/06/16 11:03:10;;;;;;;;;10.00;10.00;;;;;29.48;34.13;101600.41;5056365;28;45439;-70
2023/06/16 11:05:40;;;;;;;;;11.00;9.50;;;;;29.49;33.91;101590.47;5056118;28;45415;-70
2023/06/16 11:08:16;;;;;;;;;10.00;10.00;;;;;29.49;34.07;101587.78;5055923;28;45296;-70
2023/06/16 11:10:48;;;;;;;;;12.00;11.00;;;;;29.50;34.30;101592.97;5055994;28;45327;-70